sensor_id;sensor_type;location;lat;lon;timestamp;temperature;humidity
31074;DHT22;17730;53.552;9.940;2022-07-24T00:01:32;13.80;99.90
31074;DHT22;17730;53.552;9.940;2022-07-24T00:03:58;13.80;99.90
31074;DHT22;17730;53.552;9.940;2022-07-24T00:06:23;13.70;99.90
31074;DHT22;17730;53.552;9.940;2022-07-24T00:08:49;13.70;99.90
31074;DHT22;17730;53.552;9.940;2022-07-24T00:11:15;13.60;99.90
31074;DHT22;17730;53.552;9.940;2022-07-24T00:13:41;13.70;99.90
31074;DHT22;17730;53.552;9.940;2022-07-24T00:16:07;13.60;99.90
31074;DHT22;17730;53.552;9.940;2022-07-24T00:18:33;13.60;99.90
31074;DHT22;17730;53.552;9.940;2022-07-24T00:20:58;13.60;99.90
31074;DHT22;17730;53.552;9.940;2022-07-24T00:23:24;13.60;99.90
31074;DHT22;17730;53.552;9.940;2022-07-24T00:25:50;13.60;99.90
31074;DHT22;17730;53.552;9.940;2022-07-24T00:28:16;13.60;99.90
31074;DHT22;17730;53.552;9.940;2022-07-24T00:30:42;13.60;99.90
31074;DHT22;17730;53.552;9.940;2022-07-24T00:33:07;13.60;99.90
31074;DHT22;17730;53.552;9.940;2022-07-24T00:35:33;13.60;99.90
31074;DHT22;17730;53.552;9.940;2022-07-24T00:37:59;13.60;99.90
31074;DHT22;17730;53.552;9.940;2022-07-24T00:40:25;13.60;99.90
31074;DHT22;17730;53.552;9.940;2022-07-24T00:42:52;13.50;99.90
31074;DHT22;17730;53.552;9.940;2022-07-24T00:45:17;13.50;99.90
31074;DHT22;17730;53.552;9.940;2022-07-24T00:47:43;13.60;99.90
31074;DHT22;17730;53.552;9.940;2022-07-24T00:50:10;13.50;99.90
31074;DHT22;17730;53.552;9.940;2022-07-24T00:52:36;13.50;99.90
31074;DHT22;17730;53.552;9.940;2022-07-24T00:55:02;13.50;99.90
31074;DHT22;17730;53.552;9.940;2022-07-24T00:57:30;13.50;99.90
31074;DHT22;17730;53.552;9.940;2022-07-24T00:59:56;13.50;99.90
31074;DHT22;17730;53.552;9.940;2022-07-24T01:02:22;13.40;99.90
31074;DHT22;17730;53.552;9.940;2022-07-24T01:04:49;13.50;99.90
31074;DHT22;17730;53.552;9.940;2022-07-24T01:07:15;13.50;99.90
31074;DHT22;17730;53.552;9.940;2022-07-24T01:09:41;13.50;99.90
31074;DHT22;17730;53.552;9.940;2022-07-24T01:12:07;13.50;99.90
31074;DHT22;17730;53.552;9.940;2022-07-24T01:14:33;13.40;99.90
31074;DHT22;17730;53.552;9.940;2022-07-24T01:16:59;13.40;99.90
31074;DHT22;17730;53.552;9.940;2022-07-24T01:19:25;13.50;99.90
31074;DHT22;17730;53.552;9.940;2022-07-24T01:21:52;13.50;99.90
31074;DHT22;17730;53.552;9.940;2022-07-24T01:24:18;13.50;99.90
31074;DHT22;17730;53.552;9.940;2022-07-24T01:26:44;13.50;99.90
31074;DHT22;17730;53.552;9.940;2022-07-24T01:29:11;13.50;99.90
31074;DHT22;17730;53.552;9.940;2022-07-24T01:31:36;13.40;99.90
31074;DHT22;17730;53.552;9.940;2022-07-24T01:34:03;13.40;99.90
31074;DHT22;17730;53.552;9.940;2022-07-24T01:36:29;13.40;99.90
31074;DHT22;17730;53.552;9.940;2022-07-24T01:38:54;13.40;99.90
31074;DHT22;17730;53.552;9.940;2022-07-24T01:41:20;13.40;99.90
31074;DHT22;17730;53.552;9.940;2022-07-24T01:43:45;13.30;99.90
31074;DHT22;17730;53.552;9.940;2022-07-24T01:46:11;13.30;99.90
31074;DHT22;17730;53.552;9.940;2022-07-24T01:48:38;13.30;99.90
31074;DHT22;17730;53.552;9.940;2022-07-24T01:51:04;13.30;99.90
31074;DHT22;17730;53.552;9.940;2022-07-24T01:53:29;13.20;99.90
31074;DHT22;17730;53.552;9.940;2022-07-24T01:55:55;13.20;99.90
31074;DHT22;17730;53.552;9.940;2022-07-24T01:58:20;13.30;99.90
31074;DHT22;17730;53.552;9.940;2022-07-24T02:00:46;13.30;99.90
31074;DHT22;17730;53.552;9.940;2022-07-24T02:03:12;13.30;99.90
31074;DHT22;17730;53.552;9.940;2022-07-24T02:05:37;13.30;99.90
31074;DHT22;17730;53.552;9.940;2022-07-24T02:08:03;13.20;99.90
31074;DHT22;17730;53.552;9.940;2022-07-24T02:10:29;13.20;99.90
31074;DHT22;17730;53.552;9.940;2022-07-24T02:12:56;13.20;99.90
31074;DHT22;17730;53.552;9.940;2022-07-24T02:15:22;13.20;99.90
31074;DHT22;17730;53.552;9.940;2022-07-24T02:17:49;13.20;99.90
31074;DHT22;17730;53.552;9.940;2022-07-24T02:20:15;13.20;99.90
31074;DHT22;17730;53.552;9.940;2022-07-24T02:22:41;13.20;99.90
31074;DHT22;17730;53.552;9.940;2022-07-24T02:25:07;13.20;99.90
31074;DHT22;17730;53.552;9.940;2022-07-24T02:27:33;13.20;99.90
31074;DHT22;17730;53.552;9.940;2022-07-24T02:29:59;13.30;99.90
31074;DHT22;17730;53.552;9.940;2022-07-24T02:32:24;13.30;99.90
31074;DHT22;17730;53.552;9.940;2022-07-24T02:34:50;13.30;99.90
31074;DHT22;17730;53.552;9.940;2022-07-24T02:37:16;13.30;99.90
31074;DHT22;17730;53.552;9.940;2022-07-24T02:39:42;13.20;99.90
31074;DHT22;17730;53.552;9.940;2022-07-24T02:42:08;13.30;99.90
31074;DHT22;17730;53.552;9.940;2022-07-24T02:44:33;13.20;99.90
31074;DHT22;17730;53.552;9.940;2022-07-24T02:46:59;13.30;99.90
31074;DHT22;17730;53.552;9.940;2022-07-24T02:49:24;13.30;99.90
31074;DHT22;17730;53.552;9.940;2022-07-24T02:51:50;13.30;99.90
31074;DHT22;17730;53.552;9.940;2022-07-24T02:54:15;13.20;99.90
31074;DHT22;17730;53.552;9.940;2022-07-24T02:56:41;13.20;99.90
31074;DHT22;17730;53.552;9.940;2022-07-24T02:59:07;13.20;99.90
31074;DHT22;17730;53.552;9.940;2022-07-24T03:01:32;13.30;99.90
31074;DHT22;17730;53.552;9.940;2022-07-24T03:03:57;13.30;99.90
31074;DHT22;17730;53.552;9.940;2022-07-24T03:06:23;13.30;99.90
31074;DHT22;17730;53.552;9.940;2022-07-24T03:08:48;13.30;99.90
31074;DHT22;17730;53.552;9.940;2022-07-24T03:11:14;13.40;99.90
31074;DHT22;17730;53.552;9.940;2022-07-24T03:13:40;13.40;99.90
31074;DHT22;17730;53.552;9.940;2022-07-24T03:16:05;13.40;99.90
31074;DHT22;17730;53.552;9.940;2022-07-24T03:18:31;13.50;99.90
31074;DHT22;17730;53.552;9.940;2022-07-24T03:20:57;13.50;99.90
31074;DHT22;17730;53.552;9.940;2022-07-24T03:23:22;13.50;99.90
31074;DHT22;17730;53.552;9.940;2022-07-24T03:25:48;13.60;99.90
31074;DHT22;17730;53.552;9.940;2022-07-24T03:28:13;13.60;99.90
31074;DHT22;17730;53.552;9.940;2022-07-24T03:30:39;13.60;99.90
31074;DHT22;17730;53.552;9.940;2022-07-24T03:33:05;13.70;99.90
31074;DHT22;17730;53.552;9.940;2022-07-24T03:35:30;13.80;99.90
31074;DHT22;17730;53.552;9.940;2022-07-24T03:37:56;13.80;99.90
31074;DHT22;17730;53.552;9.940;2022-07-24T03:40:22;13.90;99.90
31074;DHT22;17730;53.552;9.940;2022-07-24T03:42:48;14.00;99.90
31074;DHT22;17730;53.552;9.940;2022-07-24T03:45:13;14.40;99.90
31074;DHT22;17730;53.552;9.940;2022-07-24T03:47:39;14.90;99.90
31074;DHT22;17730;53.552;9.940;2022-07-24T03:50:05;15.40;99.90
31074;DHT22;17730;53.552;9.940;2022-07-24T03:52:31;16.00;99.90
31074;DHT22;17730;53.552;9.940;2022-07-24T03:54:56;16.60;99.90
31074;DHT22;17730;53.552;9.940;2022-07-24T03:57:22;17.00;99.90
31074;DHT22;17730;53.552;9.940;2022-07-24T03:59:47;17.40;99.90
31074;DHT22;17730;53.552;9.940;2022-07-24T04:02:13;17.80;99.90
31074;DHT22;17730;53.552;9.940;2022-07-24T04:04:39;18.30;99.90
31074;DHT22;17730;53.552;9.940;2022-07-24T04:07:05;18.60;99.90
31074;DHT22;17730;53.552;9.940;2022-07-24T04:09:30;18.80;99.90
31074;DHT22;17730;53.552;9.940;2022-07-24T04:11:56;19.10;99.90
31074;DHT22;17730;53.552;9.940;2022-07-24T04:14:21;19.40;99.90
31074;DHT22;17730;53.552;9.940;2022-07-24T04:16:47;19.60;99.90
31074;DHT22;17730;53.552;9.940;2022-07-24T04:19:13;19.60;99.90
31074;DHT22;17730;53.552;9.940;2022-07-24T04:21:38;19.70;99.90
31074;DHT22;17730;53.552;9.940;2022-07-24T04:24:05;19.80;99.90
31074;DHT22;17730;53.552;9.940;2022-07-24T04:26:31;19.80;99.90
31074;DHT22;17730;53.552;9.940;2022-07-24T04:28:56;19.80;99.90
31074;DHT22;17730;53.552;9.940;2022-07-24T04:31:22;19.70;99.90
31074;DHT22;17730;53.552;9.940;2022-07-24T04:33:47;19.70;99.90
31074;DHT22;17730;53.552;9.940;2022-07-24T04:36:13;19.70;99.90
31074;DHT22;17730;53.552;9.940;2022-07-24T04:38:38;19.90;99.90
31074;DHT22;17730;53.552;9.940;2022-07-24T04:41:04;20.00;99.90
31074;DHT22;17730;53.552;9.940;2022-07-24T04:43:30;20.20;99.90
31074;DHT22;17730;53.552;9.940;2022-07-24T04:45:55;20.30;99.90
31074;DHT22;17730;53.552;9.940;2022-07-24T04:48:21;20.30;99.90
31074;DHT22;17730;53.552;9.940;2022-07-24T04:50:47;20.30;99.90
31074;DHT22;17730;53.552;9.940;2022-07-24T04:53:12;20.30;99.90
31074;DHT22;17730;53.552;9.940;2022-07-24T04:55:38;20.30;99.90
31074;DHT22;17730;53.552;9.940;2022-07-24T04:58:04;20.10;99.90
31074;DHT22;17730;53.552;9.940;2022-07-24T05:00:30;19.90;99.90
31074;DHT22;17730;53.552;9.940;2022-07-24T05:02:55;19.70;99.90
31074;DHT22;17730;53.552;9.940;2022-07-24T05:05:21;19.60;99.90
31074;DHT22;17730;53.552;9.940;2022-07-24T05:07:47;19.40;99.90
31074;DHT22;17730;53.552;9.940;2022-07-24T05:10:12;19.00;99.90
31074;DHT22;17730;53.552;9.940;2022-07-24T05:12:38;18.70;99.90
31074;DHT22;17730;53.552;9.940;2022-07-24T05:15:05;18.30;99.90
31074;DHT22;17730;53.552;9.940;2022-07-24T05:17:30;18.00;99.90
31074;DHT22;17730;53.552;9.940;2022-07-24T05:19:56;17.70;99.90
31074;DHT22;17730;53.552;9.940;2022-07-24T05:22:22;17.50;99.90
31074;DHT22;17730;53.552;9.940;2022-07-24T05:24:47;17.30;99.90
31074;DHT22;17730;53.552;9.940;2022-07-24T05:27:13;17.20;99.90
31074;DHT22;17730;53.552;9.940;2022-07-24T05:29:39;17.20;99.90
31074;DHT22;17730;53.552;9.940;2022-07-24T05:32:04;17.20;99.90
31074;DHT22;17730;53.552;9.940;2022-07-24T05:34:30;17.20;99.90
31074;DHT22;17730;53.552;9.940;2022-07-24T05:36:57;17.20;99.90
31074;DHT22;17730;53.552;9.940;2022-07-24T05:39:22;17.20;99.90
31074;DHT22;17730;53.552;9.940;2022-07-24T05:41:48;17.20;99.90
31074;DHT22;17730;53.552;9.940;2022-07-24T05:44:13;17.30;99.90
31074;DHT22;17730;53.552;9.940;2022-07-24T05:46:39;17.30;99.90
31074;DHT22;17730;53.552;9.940;2022-07-24T05:49:04;17.40;99.90
31074;DHT22;17730;53.552;9.940;2022-07-24T05:51:30;17.50;99.90
31074;DHT22;17730;53.552;9.940;2022-07-24T05:53:55;17.50;99.90
31074;DHT22;17730;53.552;9.940;2022-07-24T05:56:21;17.60;99.90
31074;DHT22;17730;53.552;9.940;2022-07-24T05:58:46;17.60;99.90
31074;DHT22;17730;53.552;9.940;2022-07-24T06:01:12;17.70;99.90
31074;DHT22;17730;53.552;9.940;2022-07-24T06:03:38;17.80;99.90
31074;DHT22;17730;53.552;9.940;2022-07-24T06:06:04;17.90;99.90
31074;DHT22;17730;53.552;9.940;2022-07-24T06:08:30;18.00;99.90
31074;DHT22;17730;53.552;9.940;2022-07-24T06:10:56;18.10;99.90
31074;DHT22;17730;53.552;9.940;2022-07-24T06:13:21;18.20;99.90
31074;DHT22;17730;53.552;9.940;2022-07-24T06:15:47;18.40;99.90
31074;DHT22;17730;53.552;9.940;2022-07-24T06:18:13;18.50;99.90
31074;DHT22;17730;53.552;9.940;2022-07-24T06:20:38;18.60;99.90
31074;DHT22;17730;53.552;9.940;2022-07-24T06:23:04;18.60;99.90
31074;DHT22;17730;53.552;9.940;2022-07-24T06:25:29;18.60;99.90
31074;DHT22;17730;53.552;9.940;2022-07-24T06:27:55;18.70;99.90
31074;DHT22;17730;53.552;9.940;2022-07-24T06:30:23;18.80;99.90
31074;DHT22;17730;53.552;9.940;2022-07-24T06:32:51;19.00;99.90
31074;DHT22;17730;53.552;9.940;2022-07-24T06:35:17;19.10;99.90
31074;DHT22;17730;53.552;9.940;2022-07-24T06:37:42;19.20;99.90
31074;DHT22;17730;53.552;9.940;2022-07-24T06:40:09;19.30;99.90
31074;DHT22;17730;53.552;9.940;2022-07-24T06:42:34;19.30;99.90
31074;DHT22;17730;53.552;9.940;2022-07-24T06:45:00;19.40;99.90
31074;DHT22;17730;53.552;9.940;2022-07-24T06:47:26;19.40;99.90
31074;DHT22;17730;53.552;9.940;2022-07-24T06:49:54;19.40;99.90
31074;DHT22;17730;53.552;9.940;2022-07-24T06:52:20;19.40;99.90
31074;DHT22;17730;53.552;9.940;2022-07-24T06:54:46;19.60;99.90
31074;DHT22;17730;53.552;9.940;2022-07-24T06:57:12;19.60;99.90
31074;DHT22;17730;53.552;9.940;2022-07-24T06:59:37;19.70;99.90
31074;DHT22;17730;53.552;9.940;2022-07-24T07:02:03;19.80;99.90
31074;DHT22;17730;53.552;9.940;2022-07-24T07:04:28;19.80;99.90
31074;DHT22;17730;53.552;9.940;2022-07-24T07:06:54;19.80;99.90
31074;DHT22;17730;53.552;9.940;2022-07-24T07:09:20;19.80;99.90
31074;DHT22;17730;53.552;9.940;2022-07-24T07:11:45;19.80;99.90
31074;DHT22;17730;53.552;9.940;2022-07-24T07:14:11;19.90;99.90
31074;DHT22;17730;53.552;9.940;2022-07-24T07:16:36;20.00;99.90
31074;DHT22;17730;53.552;9.940;2022-07-24T07:19:02;20.10;99.90
31074;DHT22;17730;53.552;9.940;2022-07-24T07:21:27;20.10;99.90
31074;DHT22;17730;53.552;9.940;2022-07-24T07:23:53;20.20;99.90
31074;DHT22;17730;53.552;9.940;2022-07-24T07:26:19;20.30;99.90
31074;DHT22;17730;53.552;9.940;2022-07-24T07:28:44;20.40;99.90
31074;DHT22;17730;53.552;9.940;2022-07-24T07:31:10;20.50;99.90
31074;DHT22;17730;53.552;9.940;2022-07-24T07:33:35;20.60;99.90
31074;DHT22;17730;53.552;9.940;2022-07-24T07:36:01;20.80;99.90
31074;DHT22;17730;53.552;9.940;2022-07-24T07:38:27;20.90;99.90
31074;DHT22;17730;53.552;9.940;2022-07-24T07:40:52;21.00;99.90
31074;DHT22;17730;53.552;9.940;2022-07-24T07:43:18;21.00;99.90
31074;DHT22;17730;53.552;9.940;2022-07-24T07:45:43;21.10;99.90
31074;DHT22;17730;53.552;9.940;2022-07-24T07:48:09;21.30;99.90
31074;DHT22;17730;53.552;9.940;2022-07-24T07:50:34;21.50;99.90
31074;DHT22;17730;53.552;9.940;2022-07-24T07:53:00;21.50;99.90
31074;DHT22;17730;53.552;9.940;2022-07-24T07:55:26;21.60;99.90
31074;DHT22;17730;53.552;9.940;2022-07-24T07:57:51;21.70;99.90
31074;DHT22;17730;53.552;9.940;2022-07-24T08:00:17;21.80;99.90
31074;DHT22;17730;53.552;9.940;2022-07-24T08:02:43;21.90;99.90
31074;DHT22;17730;53.552;9.940;2022-07-24T08:05:09;21.90;99.90
31074;DHT22;17730;53.552;9.940;2022-07-24T08:07:35;22.00;99.90
31074;DHT22;17730;53.552;9.940;2022-07-24T08:10:00;22.20;99.90
31074;DHT22;17730;53.552;9.940;2022-07-24T08:12:26;22.30;99.90
31074;DHT22;17730;53.552;9.940;2022-07-24T08:14:52;22.40;99.90
31074;DHT22;17730;53.552;9.940;2022-07-24T08:17:17;22.40;99.90
31074;DHT22;17730;53.552;9.940;2022-07-24T08:19:43;22.50;99.90
31074;DHT22;17730;53.552;9.940;2022-07-24T08:22:08;22.60;99.90
31074;DHT22;17730;53.552;9.940;2022-07-24T08:24:34;22.70;99.90
31074;DHT22;17730;53.552;9.940;2022-07-24T08:27:00;22.70;99.90
31074;DHT22;17730;53.552;9.940;2022-07-24T08:29:26;22.80;99.90
31074;DHT22;17730;53.552;9.940;2022-07-24T08:31:52;23.00;99.90
31074;DHT22;17730;53.552;9.940;2022-07-24T08:34:18;23.10;99.90
31074;DHT22;17730;53.552;9.940;2022-07-24T08:36:43;23.20;99.90
31074;DHT22;17730;53.552;9.940;2022-07-24T08:39:12;23.30;99.90
31074;DHT22;17730;53.552;9.940;2022-07-24T08:41:38;23.40;99.90
31074;DHT22;17730;53.552;9.940;2022-07-24T08:44:04;23.50;99.90
31074;DHT22;17730;53.552;9.940;2022-07-24T08:46:31;23.50;99.90
31074;DHT22;17730;53.552;9.940;2022-07-24T08:48:57;23.60;99.90
31074;DHT22;17730;53.552;9.940;2022-07-24T08:51:22;23.70;99.90
31074;DHT22;17730;53.552;9.940;2022-07-24T08:53:48;23.80;99.90
31074;DHT22;17730;53.552;9.940;2022-07-24T08:56:16;24.00;99.60
31074;DHT22;17730;53.552;9.940;2022-07-24T08:58:42;24.00;99.60
31074;DHT22;17730;53.552;9.940;2022-07-24T09:01:08;24.10;99.40
31074;DHT22;17730;53.552;9.940;2022-07-24T09:03:45;24.20;99.10
31074;DHT22;17730;53.552;9.940;2022-07-24T09:06:12;24.20;99.10
31074;DHT22;17730;53.552;9.940;2022-07-24T09:08:44;24.30;99.10
31074;DHT22;17730;53.552;9.940;2022-07-24T09:11:21;24.50;98.80
31074;DHT22;17730;53.552;9.940;2022-07-24T09:13:51;24.60;98.60
31074;DHT22;17730;53.552;9.940;2022-07-24T09:16:36;24.80;98.10
31074;DHT22;17730;53.552;9.940;2022-07-24T09:19:06;25.00;98.00
31074;DHT22;17730;53.552;9.940;2022-07-24T09:21:35;25.20;97.90
31074;DHT22;17730;53.552;9.940;2022-07-24T09:24:15;25.30;97.50
31074;DHT22;17730;53.552;9.940;2022-07-24T09:26:46;25.50;97.30
31074;DHT22;17730;53.552;9.940;2022-07-24T09:29:14;25.60;97.00
31074;DHT22;17730;53.552;9.940;2022-07-24T09:34:15;25.90;96.80
31074;DHT22;17730;53.552;9.940;2022-07-24T09:36:40;26.20;96.40
31074;DHT22;17730;53.552;9.940;2022-07-24T09:39:06;26.30;95.60
31074;DHT22;17730;53.552;9.940;2022-07-24T09:41:32;26.40;95.50
31074;DHT22;17730;53.552;9.940;2022-07-24T09:44:02;26.60;95.40
31074;DHT22;17730;53.552;9.940;2022-07-24T09:46:28;26.70;95.10
31074;DHT22;17730;53.552;9.940;2022-07-24T09:48:57;26.70;94.90
31074;DHT22;17730;53.552;9.940;2022-07-24T09:51:25;26.80;94.60
31074;DHT22;17730;53.552;9.940;2022-07-24T09:53:58;26.80;94.10
31074;DHT22;17730;53.552;9.940;2022-07-24T09:56:24;26.70;94.10
31074;DHT22;17730;53.552;9.940;2022-07-24T09:58:55;26.70;94.30
31074;DHT22;17730;53.552;9.940;2022-07-24T10:01:26;26.80;93.90
31074;DHT22;17730;53.552;9.940;2022-07-24T10:03:53;27.00;93.90
31074;DHT22;17730;53.552;9.940;2022-07-24T10:06:20;27.40;93.20
31074;DHT22;17730;53.552;9.940;2022-07-24T10:08:49;27.60;92.80
31074;DHT22;17730;53.552;9.940;2022-07-24T10:11:16;27.30;92.90
31074;DHT22;17730;53.552;9.940;2022-07-24T10:13:42;27.00;93.60
31074;DHT22;17730;53.552;9.940;2022-07-24T10:16:20;26.90;93.30
31074;DHT22;17730;53.552;9.940;2022-07-24T10:19:02;27.00;93.30
31074;DHT22;17730;53.552;9.940;2022-07-24T10:21:35;27.20;92.90
31074;DHT22;17730;53.552;9.940;2022-07-24T10:26:47;27.20;92.40
31074;DHT22;17730;53.552;9.940;2022-07-24T10:29:18;27.30;92.40
31074;DHT22;17730;53.552;9.940;2022-07-24T10:31:57;27.40;92.40
31074;DHT22;17730;53.552;9.940;2022-07-24T10:37:05;27.60;92.10
31074;DHT22;17730;53.552;9.940;2022-07-24T10:45:52;27.80;92.20
31074;DHT22;17730;53.552;9.940;2022-07-24T10:48:31;27.90;92.10
31074;DHT22;17730;53.552;9.940;2022-07-24T10:53:24;28.00;91.50
31074;DHT22;17730;53.552;9.940;2022-07-24T10:55:51;28.10;91.80
31074;DHT22;17730;53.552;9.940;2022-07-24T10:58:16;28.00;91.60
31074;DHT22;17730;53.552;9.940;2022-07-24T11:00:50;28.00;91.70
31074;DHT22;17730;53.552;9.940;2022-07-24T11:03:23;28.00;91.80
31074;DHT22;17730;53.552;9.940;2022-07-24T11:08:36;27.90;91.80
31074;DHT22;17730;53.552;9.940;2022-07-24T11:11:12;28.10;91.10
31074;DHT22;17730;53.552;9.940;2022-07-24T11:13:38;28.20;90.90
31074;DHT22;17730;53.552;9.940;2022-07-24T11:18:40;28.60;90.70
31074;DHT22;17730;53.552;9.940;2022-07-24T11:21:06;28.70;90.40
31074;DHT22;17730;53.552;9.940;2022-07-24T11:23:32;28.70;90.30
31074;DHT22;17730;53.552;9.940;2022-07-24T11:26:35;28.80;90.30
31074;DHT22;17730;53.552;9.940;2022-07-24T11:29:22;28.90;90.00
31074;DHT22;17730;53.552;9.940;2022-07-24T11:31:52;29.10;89.70
31074;DHT22;17730;53.552;9.940;2022-07-24T11:34:18;29.20;89.00
31074;DHT22;17730;53.552;9.940;2022-07-24T11:36:46;29.10;88.90
31074;DHT22;17730;53.552;9.940;2022-07-24T11:39:16;28.90;89.80
31074;DHT22;17730;53.552;9.940;2022-07-24T11:41:57;28.90;89.90
31074;DHT22;17730;53.552;9.940;2022-07-24T11:44:28;29.00;90.00
31074;DHT22;17730;53.552;9.940;2022-07-24T11:46:55;29.00;89.10
31074;DHT22;17730;53.552;9.940;2022-07-24T11:49:23;29.00;89.70
31074;DHT22;17730;53.552;9.940;2022-07-24T11:51:51;29.20;89.00
31074;DHT22;17730;53.552;9.940;2022-07-24T11:54:27;29.40;88.00
31074;DHT22;17730;53.552;9.940;2022-07-24T11:56:55;29.70;87.40
31074;DHT22;17730;53.552;9.940;2022-07-24T11:59:26;29.90;87.20
31074;DHT22;17730;53.552;9.940;2022-07-24T12:02:07;30.00;85.60
31074;DHT22;17730;53.552;9.940;2022-07-24T12:04:33;29.90;85.50
31074;DHT22;17730;53.552;9.940;2022-07-24T12:06:59;30.00;85.60
31074;DHT22;17730;53.552;9.940;2022-07-24T12:09:25;30.00;85.50
31074;DHT22;17730;53.552;9.940;2022-07-24T12:11:52;29.90;85.20
31074;DHT22;17730;53.552;9.940;2022-07-24T12:14:19;30.00;85.40
31074;DHT22;17730;53.552;9.940;2022-07-24T12:16:52;30.10;84.70
31074;DHT22;17730;53.552;9.940;2022-07-24T12:19:20;29.90;84.10
31074;DHT22;17730;53.552;9.940;2022-07-24T12:21:48;30.10;83.90
31074;DHT22;17730;53.552;9.940;2022-07-24T12:24:14;30.40;81.70
31074;DHT22;17730;53.552;9.940;2022-07-24T12:26:52;30.80;79.90
31074;DHT22;17730;53.552;9.940;2022-07-24T12:29:19;31.20;78.70
31074;DHT22;17730;53.552;9.940;2022-07-24T12:31:45;31.40;78.60
31074;DHT22;17730;53.552;9.940;2022-07-24T12:34:12;31.50;75.70
31074;DHT22;17730;53.552;9.940;2022-07-24T12:36:37;31.50;73.10
31074;DHT22;17730;53.552;9.940;2022-07-24T12:39:04;31.40;73.70
31074;DHT22;17730;53.552;9.940;2022-07-24T12:41:31;31.30;72.60
31074;DHT22;17730;53.552;9.940;2022-07-24T12:44:03;31.30;71.80
31074;DHT22;17730;53.552;9.940;2022-07-24T12:46:31;31.40;71.90
31074;DHT22;17730;53.552;9.940;2022-07-24T12:49:08;31.50;72.50
31074;DHT22;17730;53.552;9.940;2022-07-24T12:51:51;31.30;72.30
31074;DHT22;17730;53.552;9.940;2022-07-24T12:54:24;31.20;72.80
31074;DHT22;17730;53.552;9.940;2022-07-24T12:56:52;31.20;72.50
31074;DHT22;17730;53.552;9.940;2022-07-24T13:02:02;31.20;73.50
31074;DHT22;17730;53.552;9.940;2022-07-24T13:04:28;31.20;73.50
31074;DHT22;17730;53.552;9.940;2022-07-24T13:06:56;31.20;70.70
31074;DHT22;17730;53.552;9.940;2022-07-24T13:09:22;31.40;68.80
31074;DHT22;17730;53.552;9.940;2022-07-24T13:11:50;31.30;68.30
31074;DHT22;17730;53.552;9.940;2022-07-24T13:14:17;31.40;68.70
31074;DHT22;17730;53.552;9.940;2022-07-24T13:16:44;31.30;68.10
31074;DHT22;17730;53.552;9.940;2022-07-24T13:19:11;31.20;68.20
31074;DHT22;17730;53.552;9.940;2022-07-24T13:21:39;31.20;68.20
31074;DHT22;17730;53.552;9.940;2022-07-24T13:24:06;31.30;68.10
31074;DHT22;17730;53.552;9.940;2022-07-24T13:26:33;31.40;68.60
31074;DHT22;17730;53.552;9.940;2022-07-24T13:28:58;31.70;68.40
31074;DHT22;17730;53.552;9.940;2022-07-24T13:31:24;31.90;67.70
31074;DHT22;17730;53.552;9.940;2022-07-24T13:33:50;31.60;66.80
31074;DHT22;17730;53.552;9.940;2022-07-24T13:36:17;31.40;67.20
31074;DHT22;17730;53.552;9.940;2022-07-24T13:38:43;31.30;67.20
31074;DHT22;17730;53.552;9.940;2022-07-24T13:41:09;31.30;67.20
31074;DHT22;17730;53.552;9.940;2022-07-24T13:43:34;31.20;67.80
31074;DHT22;17730;53.552;9.940;2022-07-24T13:46:00;31.20;68.00
31074;DHT22;17730;53.552;9.940;2022-07-24T13:48:26;31.00;68.70
31074;DHT22;17730;53.552;9.940;2022-07-24T13:50:51;30.80;68.80
31074;DHT22;17730;53.552;9.940;2022-07-24T13:53:17;30.80;69.20
31074;DHT22;17730;53.552;9.940;2022-07-24T13:55:43;30.90;68.90
31074;DHT22;17730;53.552;9.940;2022-07-24T13:58:08;30.90;69.00
31074;DHT22;17730;53.552;9.940;2022-07-24T14:00:34;30.80;69.30
31074;DHT22;17730;53.552;9.940;2022-07-24T14:03:00;30.80;68.30
31074;DHT22;17730;53.552;9.940;2022-07-24T14:05:25;30.70;68.80
31074;DHT22;17730;53.552;9.940;2022-07-24T14:07:52;30.80;67.90
31074;DHT22;17730;53.552;9.940;2022-07-24T14:10:19;30.70;67.20
31074;DHT22;17730;53.552;9.940;2022-07-24T14:12:44;30.60;67.50
31074;DHT22;17730;53.552;9.940;2022-07-24T14:15:10;30.70;67.00
31074;DHT22;17730;53.552;9.940;2022-07-24T14:17:38;30.50;67.20
31074;DHT22;17730;53.552;9.940;2022-07-24T14:20:04;30.50;66.90
31074;DHT22;17730;53.552;9.940;2022-07-24T14:22:30;30.40;67.70
31074;DHT22;17730;53.552;9.940;2022-07-24T14:24:56;30.50;68.40
31074;DHT22;17730;53.552;9.940;2022-07-24T14:27:21;30.50;68.70
31074;DHT22;17730;53.552;9.940;2022-07-24T14:29:47;30.60;68.50
31074;DHT22;17730;53.552;9.940;2022-07-24T14:32:13;30.70;68.50
31074;DHT22;17730;53.552;9.940;2022-07-24T14:34:38;30.80;68.00
31074;DHT22;17730;53.552;9.940;2022-07-24T14:37:04;30.90;67.40
31074;DHT22;17730;53.552;9.940;2022-07-24T14:39:29;31.00;67.00
31074;DHT22;17730;53.552;9.940;2022-07-24T14:41:56;31.10;66.80
31074;DHT22;17730;53.552;9.940;2022-07-24T14:44:22;31.20;66.30
31074;DHT22;17730;53.552;9.940;2022-07-24T14:46:48;31.10;65.30
31074;DHT22;17730;53.552;9.940;2022-07-24T14:49:14;31.00;66.00
31074;DHT22;17730;53.552;9.940;2022-07-24T14:51:39;31.00;65.50
31074;DHT22;17730;53.552;9.940;2022-07-24T14:54:06;31.10;65.40
31074;DHT22;17730;53.552;9.940;2022-07-24T14:56:32;31.20;65.10
31074;DHT22;17730;53.552;9.940;2022-07-24T14:58:57;31.10;65.30
31074;DHT22;17730;53.552;9.940;2022-07-24T15:01:23;31.20;65.30
31074;DHT22;17730;53.552;9.940;2022-07-24T15:03:49;31.30;64.70
31074;DHT22;17730;53.552;9.940;2022-07-24T15:06:15;31.20;64.40
31074;DHT22;17730;53.552;9.940;2022-07-24T15:08:40;31.10;64.40
31074;DHT22;17730;53.552;9.940;2022-07-24T15:11:06;31.10;64.80
31074;DHT22;17730;53.552;9.940;2022-07-24T15:13:32;31.00;65.90
31074;DHT22;17730;53.552;9.940;2022-07-24T15:15:57;31.10;66.30
31074;DHT22;17730;53.552;9.940;2022-07-24T15:18:23;31.20;65.50
31074;DHT22;17730;53.552;9.940;2022-07-24T15:20:49;31.20;65.60
31074;DHT22;17730;53.552;9.940;2022-07-24T15:23:14;31.20;64.80
31074;DHT22;17730;53.552;9.940;2022-07-24T15:25:40;31.20;64.80
31074;DHT22;17730;53.552;9.940;2022-07-24T15:28:05;31.20;64.10
31074;DHT22;17730;53.552;9.940;2022-07-24T15:30:31;31.20;64.30
31074;DHT22;17730;53.552;9.940;2022-07-24T15:32:57;31.20;64.10
31074;DHT22;17730;53.552;9.940;2022-07-24T15:35:22;31.10;64.30
31074;DHT22;17730;53.552;9.940;2022-07-24T15:37:48;31.10;64.30
31074;DHT22;17730;53.552;9.940;2022-07-24T15:40:14;31.10;64.40
31074;DHT22;17730;53.552;9.940;2022-07-24T15:42:39;31.00;64.30
31074;DHT22;17730;53.552;9.940;2022-07-24T15:45:06;31.00;64.70
31074;DHT22;17730;53.552;9.940;2022-07-24T15:47:31;31.00;65.00
31074;DHT22;17730;53.552;9.940;2022-07-24T15:49:57;31.00;64.40
31074;DHT22;17730;53.552;9.940;2022-07-24T15:52:22;31.00;64.20